Time;durP1;ratioP1;P1;durP2;ratioP2;P2;SDS_P1;SDS_P2;PMS_P1;PMS_P2;Temp;Humidity;BMP_temperature;BMP_pressure;BME280_temperature;BME280_humidity;BME280_pressure;Samples;Min_cycle;Max_cycle;Signal;HPM_P1;HPM_P2
2022/04/02 00:02:18;;;;;;;9.20;8.40;;;;;;;2.03;96.47;95254.72;5042118;28;20206;-59
2022/04/02 00:04:44;;;;;;;9.97;9.07;;;;;;;1.99;95.22;95252.38;5043580;28;20205;-59
2022/04/02 00:07:15;;;;;;;9.80;9.00;;;;;;;1.98;94.80;95253.31;5041809;28;20529;-59
2022/04/02 00:09:41;;;;;;;8.83;8.13;;;;;;;2.10;94.15;95251.47;5043036;28;20197;-59
2022/04/02 00:12:09;;;;;;;9.87;9.03;;;;;;;2.05;93.60;95255.44;5041541;28;20546;-57
2022/04/02 00:14:36;;;;;;;9.20;8.40;;;;;;;2.04;94.38;95252.00;5041165;28;20303;-59
2022/04/02 00:17:03;;;;;;;9.23;8.43;;;;;;;2.02;94.20;95255.69;5042238;28;20820;-59
2022/04/02 00:19:30;;;;;;;9.33;8.53;;;;;;;2.10;93.10;95255.88;5041583;28;20213;-59
2022/04/02 00:21:57;;;;;;;8.50;7.80;;;;;;;2.03;92.85;95260.75;5042332;28;20215;-59
2022/04/02 00:24:25;;;;;;;8.73;8.03;;;;;;;2.12;91.56;95259.19;5042824;28;20244;-59
2022/04/02 00:26:51;;;;;;;8.67;7.97;;;;;;;2.09;91.74;95259.44;5040986;28;20932;-59
2022/04/02 00:29:18;;;;;;;8.30;7.60;;;;;;;2.05;92.27;95252.81;5042465;28;20196;-59
2022/04/02 00:31:44;;;;;;;7.97;7.27;;;;;;;2.09;91.82;95256.84;5041311;28;20220;-60
2022/04/02 00:34:11;;;;;;;8.27;7.57;;;;;;;2.06;90.59;95257.06;5041543;28;20651;-58
2022/04/02 00:36:38;;;;;;;7.87;7.17;;;;;;;1.98;91.77;95249.91;5041640;28;20551;-58
2022/04/02 00:39:06;;;;;;;7.70;7.10;;;;;;;2.05;91.48;95252.81;5042438;28;20205;-60
2022/04/02 00:41:34;;;;;;;7.57;6.97;;;;;;;2.02;91.97;95248.66;5042253;28;20555;-60
2022/04/02 00:44:09;;;;;;;8.07;7.37;;;;;;;1.97;91.63;95246.47;5041536;28;20210;-58
2022/04/02 00:46:36;;;;;;;7.43;6.83;;;;;;;1.96;92.29;95250.00;5042084;28;20194;-59
2022/04/02 00:49:04;;;;;;;7.73;7.13;;;;;;;1.94;92.83;95246.72;5041780;28;20208;-59
2022/04/02 00:51:31;;;;;;;8.07;7.37;;;;;;;1.94;92.08;95249.31;5041289;28;20643;-58
2022/04/02 00:53:58;;;;;;;7.53;6.93;;;;;;;2.02;92.54;95253.88;5045381;28;20213;-59
2022/04/02 00:56:25;;;;;;;8.00;7.33;;;;;;;1.93;92.42;95239.84;5050884;28;20190;-59
2022/04/02 00:58:52;;;;;;;7.43;6.83;;;;;;;1.96;92.72;95247.41;5064798;28;20241;-59
2022/04/02 01:01:19;;;;;;;7.93;7.30;;;;;;;1.89;92.94;95241.03;5050333;28;20542;-59
2022/04/02 01:03:46;;;;;;;8.00;7.30;;;;;;;1.92;93.86;95243.38;5042843;28;20203;-58
2022/04/02 01:06:13;;;;;;;6.87;6.27;;;;;;;1.92;93.35;95243.38;5041776;28;20211;-60
2022/04/02 01:08:40;;;;;;;7.70;7.10;;;;;;;1.90;94.04;95241.88;5041716;28;20202;-59
2022/04/02 01:11:07;;;;;;;7.80;7.20;;;;;;;1.89;94.57;95237.59;5041922;28;20304;-60
2022/04/02 01:13:34;;;;;;;7.60;7.00;;;;;;;1.89;95.40;95245.41;5042158;28;20211;-58
2022/04/02 01:16:02;;;;;;;8.23;7.53;;;;;;;1.86;95.03;95248.28;5041839;28;20312;-59
2022/04/02 01:18:28;;;;;;;8.33;7.63;;;;;;;1.90;93.90;95250.53;5041418;28;20226;-60
2022/04/02 01:20:55;;;;;;;8.50;7.80;;;;;;;1.88;95.30;95251.56;5042167;28;20614;-59
2022/04/02 01:23:29;;;;;;;8.00;7.40;;;;;;;1.89;94.72;95251.47;5040878;28;20533;-60
2022/04/02 01:25:57;;;;;;;7.87;7.27;;;;;;;1.86;94.37;95259.53;5043280;28;20257;-59
2022/04/02 01:28:24;;;;;;;8.30;7.60;;;;;;;1.87;93.80;95261.19;5045923;28;20202;-60
2022/04/02 01:30:50;;;;;;;8.97;8.17;;;;;;;1.87;93.77;95262.97;5045447;28;20201;-60
2022/04/02 01:33:17;;;;;;;8.97;8.20;;;;;;;1.75;92.40;95254.34;5044770;28;20205;-58
2022/04/02 01:35:43;;;;;;;9.23;8.37;;;;;;;1.66;94.51;95262.09;5045368;28;20628;-59
2022/04/02 01:38:10;;;;;;;8.50;7.70;;;;;;;1.58;94.77;95267.91;5044498;28;20300;-59
2022/04/02 01:40:38;;;;;;;9.40;8.60;;;;;;;1.59;95.38;95271.34;5046763;28;20645;-59
2022/04/02 01:43:04;;;;;;;9.17;8.37;;;;;;;1.59;97.47;95268.75;5045590;28;20590;-59
2022/04/02 01:45:31;;;;;;;9.53;8.63;;;;;;;1.61;96.97;95265.06;5045392;28;20208;-59
2022/04/02 01:47:57;;;;;;;9.67;8.77;;;;;;;1.65;97.36;95261.25;5045606;28;20204;-59
2022/04/02 01:50:24;;;;;;;9.20;8.40;;;;;;;1.63;97.63;95262.34;5044947;28;20217;-59
2022/04/02 01:52:50;;;;;;;10.20;9.30;;;;;;;1.65;97.98;95261.25;5043988;28;20617;-59
2022/04/02 01:55:17;;;;;;;10.47;9.63;;;;;;;1.69;98.34;95270.50;5045199;28;20213;-59
2022/04/02 01:57:45;;;;;;;9.70;8.90;;;;;;;1.60;96.61;95276.41;5044226;28;20225;-59
2022/04/02 02:00:13;;;;;;;10.40;9.50;;;;;;;1.66;97.02;95270.75;5045133;28;20294;-59
2022/04/02 02:02:40;;;;;;;10.93;9.93;;;;;;;1.57;95.96;95263.66;5045249;28;20213;-59
2022/04/02 02:05:07;;;;;;;11.13;10.03;;;;;;;1.59;97.68;95274.78;5044315;28;20545;-58
2022/04/02 02:07:34;;;;;;;11.47;10.40;;;;;;;1.62;98.48;95271.94;5044642;28;20198;-59
2022/04/02 02:10:00;;;;;;;11.63;10.57;;;;;;;1.60;97.57;95270.38;5045657;28;20211;-59
2022/04/02 02:12:27;;;;;;;12.27;11.17;;;;;;;1.62;97.00;95273.72;5045595;28;20208;-60
2022/04/02 02:14:55;;;;;;;11.33;10.33;;;;;;;1.55;97.55;95278.59;5045421;28;20217;-59
2022/04/02 02:17:21;;;;;;;12.40;11.30;;;;;;;1.53;97.35;95280.47;5051843;28;20240;-60
2022/04/02 02:19:48;;;;;;;12.50;11.40;;;;;;;1.57;97.74;95276.66;5054592;28;20543;-59
2022/04/02 02:22:14;;;;;;;12.83;11.73;;;;;;;1.60;97.88;95281.63;5051587;28;20197;-60
2022/04/02 02:24:41;;;;;;;13.10;11.90;;;;;;;1.65;95.97;95279.50;5049979;28;20212;-59
2022/04/02 02:27:08;;;;;;;14.03;12.67;;;;;;;1.63;96.15;95289.19;5048095;28;20251;-60
2022/04/02 02:29:36;;;;;;;13.70;12.40;;;;;;;1.61;94.93;95288.50;5049186;28;20295;-59
2022/04/02 02:32:04;;;;;;;13.83;12.53;;;;;;;1.52;94.67;95281.44;5046086;28;20987;-61
2022/04/02 02:37:15;;;;;;;13.77;12.40;;;;;;;1.41;96.09;95278.84;5045304;28;20216;-61
2022/04/02 02:39:42;;;;;;;13.50;12.20;;;;;;;1.44;97.97;95287.25;5046105;28;20209;-60
2022/04/02 02:42:09;;;;;;;14.83;13.43;;;;;;;1.41;97.27;95284.06;5045450;28;20303;-59
2022/04/02 02:44:35;;;;;;;15.03;13.63;;;;;;;1.46;96.84;95287.09;5043404;28;20214;-58
2022/04/02 02:47:03;;;;;;;15.17;13.77;;;;;;;1.46;95.91;95287.09;5043129;28;20216;-60
2022/04/02 02:49:30;;;;;;;15.73;14.20;;;;;;;1.40;97.08;95283.22;5043486;28;20209;-58
2022/04/02 02:51:57;;;;;;;16.73;15.13;;;;;;;1.44;96.90;95286.41;5043549;28;20209;-58
2022/04/02 02:54:24;;;;;;;15.30;13.87;;;;;;;1.36;97.29;95292.22;5043194;28;20202;-60
2022/04/02 02:56:50;;;;;;;15.03;13.63;;;;;;;1.38;97.64;95289.50;5043928;28;20202;-60
2022/04/02 02:59:17;;;;;;;15.10;13.60;;;;;;;1.35;96.76;95284.50;5042913;28;20309;-60
2022/04/02 03:01:43;;;;;;;16.23;14.63;;;;;;;1.42;96.37;95293.50;5043262;28;20201;-60
2022/04/02 03:04:11;;;;;;;16.17;14.57;;;;;;;1.38;94.60;95294.72;5043750;28;20659;-59
2022/04/02 03:06:37;;;;;;;16.07;14.47;;;;;;;1.27;93.98;95289.53;5042443;28;20225;-60
2022/04/02 03:09:04;;;;;;;16.53;14.93;;;;;;;1.28;94.50;95294.59;5042481;28;20680;-60
2022/04/02 03:11:32;;;;;;;15.70;14.20;;;;;;;1.31;95.52;95289.13;5042448;28;20209;-60
2022/04/02 03:13:58;;;;;;;16.97;15.23;;;;;;;1.35;95.22;95297.53;5042960;28;20206;-60
2022/04/02 03:16:25;;;;;;;16.90;15.30;;;;;;;1.33;95.19;95289.03;5047988;28;20188;-59
2022/04/02 03:18:51;;;;;;;16.17;14.63;;;;;;;1.15;93.90;95298.28;5071416;28;20215;-59
2022/04/02 03:21:21;;;;;;;16.23;14.63;;;;;;;1.25;96.17;95300.03;5066971;28;20197;-60
2022/04/02 03:23:48;;;;;;;16.13;14.63;;;;;;;1.23;96.94;95301.13;5059975;28;20525;-60
2022/04/02 03:26:15;;;;;;;15.83;14.30;;;;;;;1.25;96.88;95305.25;5043246;28;20316;-60
2022/04/02 03:28:43;;;;;;;16.50;14.90;;;;;;;1.19;95.64;95299.69;5043560;28;20197;-59
2022/04/02 03:31:10;;;;;;;16.07;14.57;;;;;;;1.21;96.89;95303.81;5042358;28;20224;-59
2022/04/02 03:33:39;;;;;;;16.40;14.80;;;;;;;1.25;97.59;95309.63;5042318;28;20212;-60
2022/04/02 03:36:06;;;;;;;16.30;14.70;;;;;;;1.21;97.02;95303.81;5042143;28;20203;-59
2022/04/02 03:38:33;;;;;;;15.93;14.43;;;;;;;1.32;97.09;95308.19;5042677;28;20235;-59
2022/04/02 03:41:00;;;;;;;16.73;15.13;;;;;;;1.22;96.43;95305.50;5043102;28;20224;-59
2022/04/02 03:43:27;;;;;;;16.80;15.10;;;;;;;1.31;96.60;95311.78;5043168;28;20212;-60
2022/04/02 03:47:07;;;;;;;16.20;14.60;;;;;;;1.28;96.37;95310.22;5043101;28;20214;-60
2022/04/02 03:48:40;;;;;;;15.23;13.80;;;;;;;1.28;96.58;95312.81;5041484;28;20208;-60
2022/04/02 03:51:06;;;;;;;15.13;13.67;;;;;;;1.24;97.27;95313.19;5042623;28;20215;-59
2022/04/02 03:53:34;;;;;;;15.23;13.83;;;;;;;1.29;97.20;95317.09;5043538;28;20217;-60
2022/04/02 03:56:01;;;;;;;14.80;13.33;;;;;;;1.30;97.01;95312.72;5042218;28;20196;-60
2022/04/02 03:58:27;;;;;;;15.50;14.00;;;;;;;1.20;96.37;95319.59;5059883;28;20235;-58
2022/04/02 04:00:54;;;;;;;15.10;13.70;;;;;;;1.30;96.88;95323.13;5069961;28;20191;-59
2022/04/02 04:03:20;;;;;;;14.53;13.17;;;;;;;1.28;97.21;95325.84;5069808;28;20192;-60
2022/04/02 04:05:48;;;;;;;15.67;14.27;;;;;;;1.18;96.51;95324.06;5068437;28;20204;-60
2022/04/02 04:08:16;;;;;;;14.37;12.97;;;;;;;1.24;98.29;95321.00;5065052;28;20254;-59
2022/04/02 04:10:44;;;;;;;14.67;13.27;;;;;;;1.25;97.26;95326.06;5043073;28;20222;-59
2022/04/02 04:13:11;;;;;;;14.13;12.83;;;;;;;1.25;98.39;95333.06;5043455;28;20584;-59
2022/04/02 04:15:37;;;;;;;14.07;12.77;;;;;;;1.24;97.97;95331.41;5041423;28;20662;-59
2022/04/02 04:18:04;;;;;;;14.73;13.23;;;;;;;1.30;97.13;95330.94;5041953;28;20353;-59
2022/04/02 04:20:32;;;;;;;14.20;12.90;;;;;;;1.23;96.22;95329.75;5042197;28;20266;-59
2022/04/02 04:22:58;;;;;;;13.77;12.47;;;;;;;1.16;96.52;95334.63;5042350;28;20303;-60
2022/04/02 04:25:25;;;;;;;13.93;12.60;;;;;;;1.17;97.61;95338.03;5040345;28;20208;-60
2022/04/02 04:27:52;;;;;;;14.43;13.03;;;;;;;1.18;97.68;95340.50;5041655;28;20200;-59
2022/04/02 04:30:19;;;;;;;14.23;12.83;;;;;;;1.24;97.17;95344.44;5042770;28;20228;-60
2022/04/02 04:32:45;;;;;;;13.67;12.37;;;;;;;1.13;97.89;95334.84;5042878;28;20199;-60
2022/04/02 04:35:12;;;;;;;13.00;11.73;;;;;;;1.14;97.88;95338.25;5041989;28;20219;-59
2022/04/02 04:37:38;;;;;;;13.67;12.37;;;;;;;1.15;97.74;95334.72;5041960;28;20232;-59
2022/04/02 04:40:08;;;;;;;13.73;12.33;;;;;;;1.12;98.13;95335.78;5042577;28;20208;-59
2022/04/02 04:42:34;;;;;;;12.60;11.50;;;;;;;1.16;98.74;95341.59;5042174;28;20222;-60
2022/04/02 04:45:02;;;;;;;13.47;12.23;;;;;;;1.02;97.23;95345.25;5041847;28;20214;-60
2022/04/02 04:47:30;;;;;;;13.53;12.33;;;;;;;1.01;96.58;95343.59;5042258;28;20207;-59
2022/04/02 04:49:56;;;;;;;13.73;12.43;;;;;;;1.00;98.58;95349.72;5041930;28;20207;-59
2022/04/02 04:52:22;;;;;;;13.30;11.90;;;;;;;1.05;97.62;95360.63;5042159;28;20219;-59
2022/04/02 04:54:49;;;;;;;12.97;11.77;;;;;;;1.01;97.04;95354.00;5042382;28;20203;-59
2022/04/02 04:57:15;;;;;;;13.17;11.87;;;;;;;0.92;97.54;95355.50;5041649;28;20199;-60
2022/04/02 04:59:42;;;;;;;12.87;11.67;;;;;;;0.95;98.82;95365.72;5045086;28;20216;-59
2022/04/02 05:02:12;;;;;;;13.20;12.00;;;;;;;0.99;98.49;95366.31;5046645;28;20680;-59
2022/04/02 05:04:38;;;;;;;13.47;12.17;;;;;;;1.06;98.69;95372.72;5046881;28;20288;-59
2022/04/02 05:07:05;;;;;;;13.23;12.03;;;;;;;1.06;98.57;95370.09;5046583;28;20204;-59
2022/04/02 05:09:32;;;;;;;13.33;12.13;;;;;;;1.09;96.94;95371.63;5045406;28;20200;-59
2022/04/02 05:11:59;;;;;;;13.03;11.80;;;;;;;1.12;96.22;95376.59;5046296;28;20209;-60
2022/04/02 05:14:28;;;;;;;12.07;10.97;;;;;;;1.13;96.54;95384.31;5045572;28;20207;-58
2022/04/02 05:16:55;;;;;;;12.30;11.13;;;;;;;1.09;98.19;95382.06;5045708;28;20213;-59
2022/04/02 05:19:24;;;;;;;11.93;10.83;;;;;;;0.94;95.66;95395.28;5045330;28;20223;-58
2022/04/02 05:21:50;;;;;;;11.80;10.77;;;;;;;1.03;96.62;95387.72;5045653;28;20215;-60
2022/04/02 05:24:17;;;;;;;12.13;11.03;;;;;;;1.02;97.55;95389.50;5045355;28;20213;-60
2022/04/02 05:26:47;;;;;;;11.23;10.23;;;;;;;1.06;97.84;95385.72;5044189;28;20692;-59
2022/04/02 05:29:14;;;;;;;12.50;11.30;;;;;;;1.10;97.24;95396.72;5046086;28;20216;-60
2022/04/02 05:31:40;;;;;;;13.17;11.87;;;;;;;1.14;96.79;95398.97;5045488;28;20204;-58
2022/04/02 05:34:08;;;;;;;12.27;11.17;;;;;;;1.15;97.48;95392.00;5045321;28;20282;-59
2022/04/02 05:36:38;;;;;;;12.87;11.67;;;;;;;1.07;97.14;95396.94;5044691;28;20213;-59
2022/04/02 05:39:04;;;;;;;12.93;11.73;;;;;;;1.11;98.50;95401.81;5045119;28;20231;-58
2022/04/02 05:41:31;;;;;;;12.17;11.07;;;;;;;1.02;96.06;95399.91;5061973;28;20247;-59
2022/04/02 05:43:58;;;;;;;12.57;11.37;;;;;;;1.06;97.31;95413.53;5072081;28;20203;-60
2022/04/02 05:46:24;;;;;;;13.13;11.93;;;;;;;1.08;98.05;95416.81;5069330;28;20190;-59
2022/04/02 05:48:51;;;;;;;12.00;10.90;;;;;;;1.17;99.00;95410.94;5060198;28;20271;-58
2022/04/02 05:51:18;;;;;;;11.47;10.47;;;;;;;1.35;98.50;95415.56;5046591;28;20211;-58
2022/04/02 05:53:46;;;;;;;11.77;10.67;;;;;;;1.37;97.62;95425.88;5045537;28;20903;-58
2022/04/02 05:56:12;;;;;;;11.80;10.70;;;;;;;1.35;97.79;95425.13;5044089;28;20630;-59
2022/04/02 05:58:39;;;;;;;11.47;10.37;;;;;;;1.38;97.27;95430.13;5045086;28;20236;-59
2022/04/02 06:01:06;;;;;;;11.20;10.20;;;;;;;1.35;96.57;95425.97;5044816;28;20212;-59
2022/04/02 06:03:33;;;;;;;11.70;10.60;;;;;;;1.41;95.82;95432.50;5045843;28;20233;-59
2022/04/02 06:05:59;;;;;;;11.27;10.27;;;;;;;1.46;95.53;95432.97;5047791;28;20211;-60
2022/04/02 06:08:26;;;;;;;12.00;10.90;;;;;;;1.48;95.29;95431.91;5044241;28;20613;-60
2022/04/02 06:10:54;;;;;;;10.67;9.67;;;;;;;1.48;95.84;95428.50;5043012;28;20204;-60
2022/04/02 06:13:21;;;;;;;10.97;9.97;;;;;;;1.50;95.51;95447.41;5045036;28;20328;-60
2022/04/02 06:15:47;;;;;;;10.63;9.73;;;;;;;1.61;94.48;95437.00;5044378;28;21370;-63
2022/04/02 06:18:17;;;;;;;11.87;10.77;;;;;;;1.64;94.86;95439.38;5044519;28;20235;-59
2022/04/02 06:20:44;;;;;;;11.07;10.00;;;;;;;1.73;95.16;95440.44;5045133;28;20634;-60
2022/04/02 06:23:11;;;;;;;10.40;9.50;;;;;;;1.75;94.46;95449.78;5044930;28;20210;-60
2022/04/02 06:25:39;;;;;;;10.53;9.53;;;;;;;1.75;94.78;95446.34;5044385;28;20608;-60
2022/04/02 06:28:07;;;;;;;10.90;9.97;;;;;;;1.84;94.31;95458.69;5044075;28;20205;-60
2022/04/02 06:30:34;;;;;;;10.83;9.50;;;;;;;1.86;93.59;95454.19;5045910;28;20206;-60
2022/04/02 06:33:01;;;;;;;11.33;10.13;;;;;;;1.85;93.82;95465.53;5044297;28;20213;-60
2022/04/02 06:35:28;;;;;;;9.40;8.63;;;;;;;1.93;92.55;95464.00;5044020;28;20203;-61
2022/04/02 06:37:54;;;;;;;10.30;9.40;;;;;;;1.90;92.53;95464.25;5043843;28;20208;-59
2022/04/02 06:40:21;;;;;;;9.63;8.83;;;;;;;1.84;91.02;95461.28;5043978;28;20230;-60
2022/04/02 06:42:48;;;;;;;10.40;9.50;;;;;;;1.78;92.31;95465.19;5045252;28;20197;-60
2022/04/02 06:45:17;;;;;;;9.60;8.80;;;;;;;1.77;93.14;95473.94;5052615;28;20198;-60
2022/04/02 06:47:43;;;;;;;9.57;8.77;;;;;;;1.87;93.09;95469.72;5051571;28;20207;-59
2022/04/02 06:50:11;;;;;;;9.67;8.77;;;;;;;1.92;92.58;95472.78;5043829;28;20205;-61
2022/04/02 06:52:39;;;;;;;9.53;8.73;;;;;;;1.96;91.49;95484.63;5042755;28;20631;-59
2022/04/02 06:55:08;;;;;;;9.33;8.57;;;;;;;2.02;91.92;95485.09;5044562;28;20202;-60
2022/04/02 06:57:40;;;;;;;9.60;8.70;;;;;;;2.01;93.07;95479.06;5043380;28;20289;-60
2022/04/02 07:00:07;;;;;;;9.77;8.87;;;;;;;2.01;92.42;95486.88;5043265;28;20230;-61
2022/04/02 07:02:35;;;;;;;9.30;8.53;;;;;;;1.99;93.69;95489.59;5042547;28;20225;-60
2022/04/02 07:05:02;;;;;;;9.60;8.70;;;;;;;2.02;94.66;95487.72;5043514;28;20208;-59
2022/04/02 07:07:28;;;;;;;10.23;9.33;;;;;;;2.02;92.25;95487.72;5043079;28;20201;-59
2022/04/02 07:09:54;;;;;;;9.67;8.83;;;;;;;1.86;95.00;95493.28;5043285;28;20205;-59
2022/04/02 07:12:21;;;;;;;8.67;7.97;;;;;;;2.08;92.73;95501.09;5042931;28;20649;-59
2022/04/02 07:14:47;;;;;;;9.00;8.20;;;;;;;2.07;94.19;95503.81;5044118;28;20206;-60
2022/04/02 07:17:14;;;;;;;8.97;8.27;;;;;;;2.09;94.16;95505.34;5044603;28;20201;-59
2022/04/02 07:19:42;;;;;;;10.10;9.10;;;;;;;2.24;92.64;95501.53;5045472;28;20252;-60
2022/04/02 07:22:09;;;;;;;9.70;8.80;;;;;;;2.13;93.51;95511.97;5043712;28;20565;-60
2022/04/02 07:24:38;;;;;;;9.03;8.23;;;;;;;2.20;94.15;95512.31;5042985;28;20209;-62
2022/04/02 07:27:05;;;;;;;8.80;7.90;;;;;;;2.22;93.84;95511.28;5043104;28;20256;-60
2022/04/02 07:29:32;;;;;;;8.50;7.80;;;;;;;2.35;92.74;95524.16;5042476;28;20209;-61
2022/04/02 07:31:59;;;;;;;9.10;8.37;;;;;;;2.29;93.25;95516.84;5042781;28;20218;-53
2022/04/02 07:34:25;;;;;;;8.47;7.73;;;;;;;2.28;93.34;95525.59;5044484;28;20512;-53
2022/04/02 07:37:00;;;;;;;8.93;8.20;;;;;;;2.43;91.22;95519.19;5042592;28;20213;-53
2022/04/02 07:39:33;;;;;;;8.70;7.90;;;;;;;2.46;91.26;95529.38;5042531;28;20217;-53
2022/04/02 07:42:03;;;;;;;8.77;7.97;;;;;;;2.42;90.95;95536.63;5042548;28;20201;-59
2022/04/02 07:44:43;;;;;;;8.70;8.00;;;;;;;2.37;90.58;95535.34;5042970;28;20200;-58
2022/04/02 07:47:14;;;;;;;8.27;7.63;;;;;;;2.44;91.97;95539.13;5041886;28;20205;-58
2022/04/02 07:49:42;;;;;;;10.10;9.10;;;;;;;2.48;90.89;95543.94;5042986;28;20216;-61
2022/04/02 07:52:12;;;;;;;8.87;8.10;;;;;;;2.58;90.22;95548.47;5042889;28;20206;-58
2022/04/02 07:54:42;;;;;;;7.97;7.30;;;;;;;2.58;91.20;95554.50;5040811;28;20677;-59
2022/04/02 07:57:10;;;;;;;8.03;7.37;;;;;;;2.53;91.18;95556.66;5043722;28;20210;-59
2022/04/02 07:59:40;;;;;;;7.87;7.27;;;;;;;2.54;90.08;95558.31;5042872;28;20238;-58
2022/04/02 08:02:36;;;;;;;7.77;7.07;;;;;;;2.46;91.77;95551.09;5043269;28;20194;-59
2022/04/02 08:04:54;;;;;;;8.20;7.40;;;;;;;2.38;91.85;95560.44;5063653;28;20225;-58
2022/04/02 08:07:22;;;;;;;7.67;7.07;;;;;;;2.53;90.12;95567.09;5065857;28;20207;-58
2022/04/02 08:09:50;;;;;;;7.87;7.10;;;;;;;2.40;92.10;95566.41;5063437;28;20191;-58
2022/04/02 08:12:17;;;;;;;8.90;8.10;;;;;;;2.42;90.71;95567.09;5044549;28;20223;-60
2022/04/02 08:14:44;;;;;;;8.60;7.90;;;;;;;2.45;92.49;95569.44;5042742;28;20209;-59
2022/04/02 08:17:11;;;;;;;8.80;8.10;;;;;;;2.61;90.32;95577.75;5042352;28;20219;-58
2022/04/02 08:19:37;;;;;;;8.00;7.40;;;;;;;2.67;91.30;95569.44;5042974;28;20234;-58
2022/04/02 08:22:04;;;;;;;8.40;7.70;;;;;;;2.70;89.99;95573.56;5042686;28;20211;-58
2022/04/02 08:24:32;;;;;;;9.30;8.50;;;;;;;2.75;90.39;95587.09;5043162;28;20635;-58
2022/04/02 08:27:02;;;;;;;9.10;8.30;;;;;;;2.87;88.89;95589.56;5045646;28;20246;-58
2022/04/02 08:29:42;;;;;;;9.20;8.30;;;;;;;2.85;90.59;95594.09;5044684;28;20214;-57
2022/04/02 08:32:18;;;;;;;8.37;7.67;;;;;;;2.93;89.66;95596.91;5042304;28;20214;-59
2022/04/02 08:35:06;;;;;;;9.13;8.33;;;;;;;2.85;88.62;95596.69;5041663;28;20222;-59
2022/04/02 08:38:05;;;;;;;9.33;8.40;;;;;;;2.75;89.78;95597.53;5041375;28;20642;-59
2022/04/02 08:40:56;;;;;;;8.33;7.63;;;;;;;2.70;91.77;95604.88;5042402;28;20362;-59
2022/04/02 08:44:04;;;;;;;8.10;7.50;;;;;;;2.75;90.29;95608.81;5043822;28;20195;-59
2022/04/02 08:46:36;;;;;;;8.63;7.93;;;;;;;2.76;90.90;95609.66;5042502;28;20211;-59
2022/04/02 08:49:23;;;;;;;8.47;7.77;;;;;;;2.69;92.79;95619.75;5042332;28;20219;-59
2022/04/02 08:52:05;;;;;;;8.37;7.67;;;;;;;2.70;92.44;95616.16;5042691;28;20210;-59
2022/04/02 08:54:37;;;;;;;9.43;8.63;;;;;;;2.84;89.95;95617.69;5041026;28;20234;-58
2022/04/02 08:57:23;;;;;;;7.87;7.27;;;;;;;2.85;89.83;95622.81;5042038;28;20199;-59
2022/04/02 09:00:03;;;;;;;8.13;7.47;;;;;;;2.63;91.37;95635.03;5042021;28;20320;-58
2022/04/02 09:02:49;;;;;;;8.23;7.57;;;;;;;2.57;92.12;95645.94;5042644;28;20202;-59
2022/04/02 09:05:23;;;;;;;7.67;7.07;;;;;;;2.67;92.77;95636.47;5042443;28;20516;-59
2022/04/02 09:08:27;;;;;;;7.90;7.20;;;;;;;2.72;90.53;95650.81;5043574;28;20248;-58
2022/04/02 09:11:21;;;;;;;8.10;7.30;;;;;;;2.75;89.65;95645.34;5042234;28;20246;-59
2022/04/02 09:14:09;;;;;;;7.63;7.03;;;;;;;2.87;89.93;95660.03;5042116;28;20256;-59
2022/04/02 09:16:48;;;;;;;7.80;7.17;;;;;;;2.59;89.37;95664.94;5043923;28;20216;-57
2022/04/02 09:19:23;;;;;;;9.07;8.17;;;;;;;2.72;88.47;95661.25;5046591;28;20199;-59
2022/04/02 09:22:15;;;;;;;8.40;7.70;;;;;;;2.94;87.99;95668.25;5049768;28;20205;-58
2022/04/02 09:25:13;;;;;;;8.63;7.53;;;;;;;3.17;89.02;95672.47;5044635;28;20202;-59
2022/04/02 09:27:59;;;;;;;9.07;8.27;;;;;;;3.10;87.49;95673.06;5042208;28;20234;-59
2022/04/02 09:30:43;;;;;;;8.67;7.93;;;;;;;3.34;87.67;95669.34;5043474;28;20195;-58
2022/04/02 09:33:31;;;;;;;9.13;7.97;;;;;;;3.29;85.78;95670.69;5046332;28;20214;-58
2022/04/02 09:36:12;;;;;;;9.27;8.47;;;;;;;3.22;86.20;95670.34;5045349;28;20204;-57
2022/04/02 09:38:48;;;;;;;8.57;7.80;;;;;;;3.17;84.76;95684.69;5047131;28;20507;-58
2022/04/02 09:41:25;;;;;;;8.90;8.17;;;;;;;3.31;87.31;95685.28;5044547;28;20322;-57
2022/04/02 09:44:00;;;;;;;9.07;8.17;;;;;;;3.26;85.67;95684.78;5043240;28;20502;-58
2022/04/02 09:46:53;;;;;;;8.90;8.10;;;;;;;3.25;84.89;95684.94;5048953;28;20521;-59
2022/04/02 09:49:24;;;;;;;7.87;7.20;;;;;;;3.25;84.47;95680.53;5052280;28;20199;-57
2022/04/02 09:51:58;;;;;;;8.60;7.80;;;;;;;3.34;85.01;95692.03;5056954;28;20198;-57
2022/04/02 09:54:30;;;;;;;8.73;7.83;;;;;;;3.27;85.20;95689.06;5060273;28;20278;-57
2022/04/02 09:57:08;;;;;;;8.70;7.53;;;;;;;3.44;84.07;95690.34;5063255;28;20207;-57
2022/04/02 09:59:39;;;;;;;8.50;7.70;;;;;;;3.30;85.30;95688.81;5059036;28;20245;-57
2022/04/02 10:02:07;;;;;;;7.23;6.73;;;;;;;2.97;85.84;95688.91;5061707;28;20206;-56
2022/04/02 10:04:41;;;;;;;8.33;7.53;;;;;;;2.98;86.17;95703.59;5061615;28;20199;-57
2022/04/02 10:07:15;;;;;;;8.40;7.60;;;;;;;2.89;87.05;95699.94;5060788;28;20202;-55
2022/04/02 10:09:42;;;;;;;8.60;7.80;;;;;;;2.87;87.89;95708.84;5071661;28;20200;-54
2022/04/02 10:12:13;;;;;;;8.37;7.67;;;;;;;2.93;86.62;95708.38;5057147;28;20218;-57
2022/04/02 10:14:40;;;;;;;7.63;6.93;;;;;;;2.83;86.95;95713.47;5046077;28;20198;-54
2022/04/02 10:17:09;;;;;;;8.00;7.30;;;;;;;2.65;86.13;95717.50;5043779;28;20757;-56
2022/04/02 10:19:37;;;;;;;8.53;7.73;;;;;;;2.64;85.62;95715.81;5044589;28;20246;-57
2022/04/02 10:22:05;;;;;;;7.90;7.20;;;;;;;2.78;86.94;95718.22;5044571;28;20213;-56
2022/04/02 10:24:37;;;;;;;8.00;7.40;;;;;;;2.74;88.61;95721.16;5044516;28;20538;-57
2022/04/02 10:27:05;;;;;;;8.73;8.00;;;;;;;2.82;87.97;95724.03;5043144;28;20301;-57
2022/04/02 10:29:41;;;;;;;8.80;7.93;;;;;;;2.74;87.31;95729.84;5067322;28;20213;-57
2022/04/02 10:32:26;;;;;;;8.73;7.83;;;;;;;2.77;88.43;95736.59;5069430;28;20209;-57
2022/04/02 10:34:57;;;;;;;7.87;7.27;;;;;;;2.86;90.83;95725.44;5073063;28;20186;-56
2022/04/02 10:37:28;;;;;;;8.13;7.43;;;;;;;2.86;85.96;95726.28;5052535;28;20197;-57
2022/04/02 10:39:58;;;;;;;9.03;7.20;;;;;;;2.96;86.46;95732.47;5041674;28;20229;-55
2022/04/02 10:42:30;;;;;;;7.40;6.70;;;;;;;3.01;84.82;95730.31;5054600;28;20252;-57
2022/04/02 10:44:59;;;;;;;7.57;6.97;;;;;;;2.92;83.08;95731.03;5050921;28;20191;-57
2022/04/02 10:47:30;;;;;;;7.33;6.63;;;;;;;2.97;83.33;95728.91;5044214;28;20215;-56
2022/04/02 10:50:06;;;;;;;7.20;6.60;;;;;;;3.20;84.38;95739.31;5043527;28;20188;-57
2022/04/02 10:52:34;;;;;;;7.93;7.23;;;;;;;3.05;82.70;95741.34;5044422;28;20290;-54
2022/04/02 10:55:01;;;;;;;7.20;6.60;;;;;;;3.24;81.52;95741.56;5044212;28;20237;-55
2022/04/02 10:57:28;;;;;;;7.30;6.70;;;;;;;3.14;82.85;95745.03;5043057;28;20195;-55
2022/04/02 11:00:00;;;;;;;8.83;6.57;;;;;;;3.28;83.11;95743.00;5042996;28;20227;-56
2022/04/02 11:02:40;;;;;;;7.30;6.60;;;;;;;3.19;80.90;95753.34;5043284;28;20546;-56
2022/04/02 11:05:08;;;;;;;6.97;6.30;;;;;;;3.22;83.00;95764.38;5043572;28;20229;-57
2022/04/02 11:07:37;;;;;;;7.70;6.83;;;;;;;3.20;84.49;95763.66;5044004;28;20201;-55
2022/04/02 11:10:05;;;;;;;7.13;6.50;;;;;;;3.05;82.42;95771.88;5042706;28;20642;-55
2022/04/02 11:12:33;;;;;;;6.93;6.33;;;;;;;2.88;81.90;95765.31;5043591;28;20221;-54
2022/04/02 11:15:08;;;;;;;6.70;6.20;;;;;;;2.92;82.95;95767.59;5044812;28;20195;-54
2022/04/02 11:17:38;;;;;;;7.73;7.03;;;;;;;3.06;83.19;95773.50;5043414;28;20813;-58
2022/04/02 11:20:06;;;;;;;8.63;6.47;;;;;;;3.21;83.25;95767.09;5043077;28;20210;-57
2022/04/02 11:22:39;;;;;;;7.67;6.87;;;;;;;3.14;84.25;95768.53;5045118;28;20526;-56
2022/04/02 11:25:07;;;;;;;8.10;7.40;;;;;;;3.26;83.73;95770.19;5042777;28;20313;-58
2022/04/02 11:27:37;;;;;;;7.50;6.80;;;;;;;3.37;81.33;95772.78;5044365;28;20198;-56
2022/04/02 11:30:07;;;;;;;7.43;6.83;;;;;;;3.21;83.33;95769.72;5043033;28;20220;-54
2022/04/02 11:32:43;;;;;;;7.50;6.70;;;;;;;3.11;81.31;95772.22;5044217;28;20601;-55
2022/04/02 11:35:15;;;;;;;6.97;6.37;;;;;;;3.24;84.62;95775.53;5043510;28;20192;-57
2022/04/02 11:37:57;;;;;;;7.93;7.23;;;;;;;3.25;86.72;95778.97;5046443;28;20642;-54
2022/04/02 11:40:26;;;;;;;8.03;7.33;;;;;;;3.37;85.62;95778.00;5047750;28;20238;-54
2022/04/02 11:42:53;;;;;;;7.00;6.50;;;;;;;3.62;84.40;95777.72;5044674;28;20261;-53
2022/04/02 11:45:20;;;;;;;7.53;6.83;;;;;;;3.58;82.03;95781.53;5044118;28;20218;-53
2022/04/02 11:47:51;;;;;;;7.60;6.90;;;;;;;3.51;83.27;95770.75;5044744;28;20215;-57
2022/04/02 11:50:26;;;;;;;7.53;6.83;;;;;;;3.54;82.11;95780.16;5045060;28;20224;-56